sensor_id;sensor_type;location;lat;lon;timestamp;temperature;humidity
71668;DHT22;59504;54.806;9.640;2024-01-06T00:01:05;-0.10;81.90
71668;DHT22;59504;54.806;9.640;2024-01-06T00:03:24;-0.10;82.40
71668;DHT22;59504;54.806;9.640;2024-01-06T00:05:43;-0.10;82.40
71668;DHT22;59504;54.806;9.640;2024-01-06T00:08:03;-0.10;82.40
71668;DHT22;59504;54.806;9.640;2024-01-06T00:10:22;-0.10;82.20
71668;DHT22;59504;54.806;9.640;2024-01-06T00:12:41;-0.10;82.10
71668;DHT22;59504;54.806;9.640;2024-01-06T00:15:01;-0.20;81.80
71668;DHT22;59504;54.806;9.640;2024-01-06T00:17:20;-0.10;82.80
71668;DHT22;59504;54.806;9.640;2024-01-06T00:19:39;-0.10;82.10
71668;DHT22;59504;54.806;9.640;2024-01-06T00:21:58;-0.30;80.30
71668;DHT22;59504;54.806;9.640;2024-01-06T00:24:19;-0.30;81.00
71668;DHT22;59504;54.806;9.640;2024-01-06T00:26:38;-0.30;80.00
71668;DHT22;59504;54.806;9.640;2024-01-06T00:28:57;-0.20;80.10
71668;DHT22;59504;54.806;9.640;2024-01-06T00:31:17;-0.10;79.80
71668;DHT22;59504;54.806;9.640;2024-01-06T00:33:36;-0.20;80.00
71668;DHT22;59504;54.806;9.640;2024-01-06T00:35:58;-0.10;79.10
71668;DHT22;59504;54.806;9.640;2024-01-06T00:38:17;-0.30;78.50
71668;DHT22;59504;54.806;9.640;2024-01-06T00:40:36;-0.20;78.80
71668;DHT22;59504;54.806;9.640;2024-01-06T00:42:56;-0.30;78.60
71668;DHT22;59504;54.806;9.640;2024-01-06T00:45:15;-0.10;78.70
71668;DHT22;59504;54.806;9.640;2024-01-06T00:47:35;-0.20;78.30
71668;DHT22;59504;54.806;9.640;2024-01-06T00:49:54;-0.20;79.00
71668;DHT22;59504;54.806;9.640;2024-01-06T00:52:13;-0.10;79.00
71668;DHT22;59504;54.806;9.640;2024-01-06T00:54:32;-0.20;78.60
71668;DHT22;59504;54.806;9.640;2024-01-06T00:56:51;0.10;78.20
71668;DHT22;59504;54.806;9.640;2024-01-06T00:59:11;0.00;78.30
71668;DHT22;59504;54.806;9.640;2024-01-06T01:01:30;0.00;78.30
71668;DHT22;59504;54.806;9.640;2024-01-06T01:03:49;-0.10;78.10
71668;DHT22;59504;54.806;9.640;2024-01-06T01:06:08;0.10;78.20
71668;DHT22;59504;54.806;9.640;2024-01-06T01:08:28;-0.10;77.70
71668;DHT22;59504;54.806;9.640;2024-01-06T01:10:47;0.00;77.80
71668;DHT22;59504;54.806;9.640;2024-01-06T01:13:07;0.00;78.00
71668;DHT22;59504;54.806;9.640;2024-01-06T01:15:26;0.00;77.90
71668;DHT22;59504;54.806;9.640;2024-01-06T01:17:45;0.10;78.00
71668;DHT22;59504;54.806;9.640;2024-01-06T01:20:05;-0.10;78.40
71668;DHT22;59504;54.806;9.640;2024-01-06T01:22:24;0.00;77.70
71668;DHT22;59504;54.806;9.640;2024-01-06T01:24:46;-0.10;77.90
71668;DHT22;59504;54.806;9.640;2024-01-06T01:27:05;0.10;78.40
71668;DHT22;59504;54.806;9.640;2024-01-06T01:29:25;-0.20;78.10
71668;DHT22;59504;54.806;9.640;2024-01-06T01:31:44;0.00;78.30
71668;DHT22;59504;54.806;9.640;2024-01-06T01:34:03;-0.10;78.70
71668;DHT22;59504;54.806;9.640;2024-01-06T01:36:23;0.10;79.30
71668;DHT22;59504;54.806;9.640;2024-01-06T01:38:42;-0.10;78.40
71668;DHT22;59504;54.806;9.640;2024-01-06T01:41:01;0.00;78.60
71668;DHT22;59504;54.806;9.640;2024-01-06T01:43:21;-0.10;78.60
71668;DHT22;59504;54.806;9.640;2024-01-06T01:45:40;-0.10;78.40
71668;DHT22;59504;54.806;9.640;2024-01-06T01:47:59;0.00;78.30
71668;DHT22;59504;54.806;9.640;2024-01-06T01:50:19;0.00;78.00
71668;DHT22;59504;54.806;9.640;2024-01-06T01:52:39;0.10;78.80
71668;DHT22;59504;54.806;9.640;2024-01-06T01:54:59;-0.10;78.30
71668;DHT22;59504;54.806;9.640;2024-01-06T01:57:19;-0.10;78.40
71668;DHT22;59504;54.806;9.640;2024-01-06T01:59:40;0.00;78.40
71668;DHT22;59504;54.806;9.640;2024-01-06T02:01:59;0.00;79.40
71668;DHT22;59504;54.806;9.640;2024-01-06T02:04:18;0.10;79.00
71668;DHT22;59504;54.806;9.640;2024-01-06T02:06:37;0.20;78.80
71668;DHT22;59504;54.806;9.640;2024-01-06T02:08:57;0.20;78.70
71668;DHT22;59504;54.806;9.640;2024-01-06T02:11:16;0.10;78.50
71668;DHT22;59504;54.806;9.640;2024-01-06T02:13:36;0.30;79.00
71668;DHT22;59504;54.806;9.640;2024-01-06T02:15:55;0.00;79.60
71668;DHT22;59504;54.806;9.640;2024-01-06T02:18:17;0.10;78.90
71668;DHT22;59504;54.806;9.640;2024-01-06T02:20:37;0.20;78.70
71668;DHT22;59504;54.806;9.640;2024-01-06T02:22:56;0.30;78.60
71668;DHT22;59504;54.806;9.640;2024-01-06T02:25:17;0.20;78.70
71668;DHT22;59504;54.806;9.640;2024-01-06T02:27:37;0.10;77.80
71668;DHT22;59504;54.806;9.640;2024-01-06T02:29:56;0.20;77.50
71668;DHT22;59504;54.806;9.640;2024-01-06T02:32:15;0.10;77.10
71668;DHT22;59504;54.806;9.640;2024-01-06T02:34:35;0.10;76.90
71668;DHT22;59504;54.806;9.640;2024-01-06T02:36:57;0.00;76.50
71668;DHT22;59504;54.806;9.640;2024-01-06T02:39:16;0.00;76.40
71668;DHT22;59504;54.806;9.640;2024-01-06T02:41:35;0.00;76.40
71668;DHT22;59504;54.806;9.640;2024-01-06T02:43:54;0.10;76.10
71668;DHT22;59504;54.806;9.640;2024-01-06T02:46:15;0.00;75.50
71668;DHT22;59504;54.806;9.640;2024-01-06T02:48:34;0.00;75.90
71668;DHT22;59504;54.806;9.640;2024-01-06T02:50:53;-0.10;76.40
71668;DHT22;59504;54.806;9.640;2024-01-06T02:53:12;-0.10;76.00
71668;DHT22;59504;54.806;9.640;2024-01-06T02:55:32;0.20;75.90
71668;DHT22;59504;54.806;9.640;2024-01-06T02:57:51;0.10;75.90
71668;DHT22;59504;54.806;9.640;2024-01-06T03:00:10;0.00;76.00
71668;DHT22;59504;54.806;9.640;2024-01-06T03:02:33;0.00;76.10
71668;DHT22;59504;54.806;9.640;2024-01-06T03:04:56;0.10;76.20
71668;DHT22;59504;54.806;9.640;2024-01-06T03:07:17;0.10;76.50
71668;DHT22;59504;54.806;9.640;2024-01-06T03:09:37;0.20;76.10
71668;DHT22;59504;54.806;9.640;2024-01-06T03:11:57;0.30;75.70
71668;DHT22;59504;54.806;9.640;2024-01-06T03:14:17;0.30;75.50
71668;DHT22;59504;54.806;9.640;2024-01-06T03:16:36;0.20;75.40
71668;DHT22;59504;54.806;9.640;2024-01-06T03:18:57;0.20;75.30
71668;DHT22;59504;54.806;9.640;2024-01-06T03:21:18;0.30;75.30
71668;DHT22;59504;54.806;9.640;2024-01-06T03:23:50;0.10;75.30
71668;DHT22;59504;54.806;9.640;2024-01-06T03:26:14;0.20;75.50
71668;DHT22;59504;54.806;9.640;2024-01-06T03:28:33;0.20;75.10
71668;DHT22;59504;54.806;9.640;2024-01-06T03:30:52;0.20;75.00
71668;DHT22;59504;54.806;9.640;2024-01-06T03:33:12;0.20;75.10
71668;DHT22;59504;54.806;9.640;2024-01-06T03:35:31;0.20;75.70
71668;DHT22;59504;54.806;9.640;2024-01-06T03:37:53;0.10;75.90
71668;DHT22;59504;54.806;9.640;2024-01-06T03:40:12;0.30;76.20
71668;DHT22;59504;54.806;9.640;2024-01-06T03:42:31;0.20;75.40
71668;DHT22;59504;54.806;9.640;2024-01-06T03:44:51;0.10;74.60
71668;DHT22;59504;54.806;9.640;2024-01-06T03:47:10;0.20;75.00
71668;DHT22;59504;54.806;9.640;2024-01-06T03:49:29;0.40;75.40
71668;DHT22;59504;54.806;9.640;2024-01-06T03:51:49;0.10;75.30
71668;DHT22;59504;54.806;9.640;2024-01-06T03:54:08;0.20;75.00
71668;DHT22;59504;54.806;9.640;2024-01-06T03:56:27;0.20;74.80
71668;DHT22;59504;54.806;9.640;2024-01-06T03:58:47;0.20;74.80
71668;DHT22;59504;54.806;9.640;2024-01-06T04:01:06;0.10;75.00
71668;DHT22;59504;54.806;9.640;2024-01-06T04:03:25;0.10;74.80
71668;DHT22;59504;54.806;9.640;2024-01-06T04:05:45;0.20;75.20
71668;DHT22;59504;54.806;9.640;2024-01-06T04:08:04;0.00;75.10
71668;DHT22;59504;54.806;9.640;2024-01-06T04:10:23;0.10;75.70
71668;DHT22;59504;54.806;9.640;2024-01-06T04:12:42;0.20;74.90
71668;DHT22;59504;54.806;9.640;2024-01-06T04:15:04;0.10;74.60
71668;DHT22;59504;54.806;9.640;2024-01-06T04:17:23;0.20;74.40
71668;DHT22;59504;54.806;9.640;2024-01-06T04:19:44;0.00;74.50
71668;DHT22;59504;54.806;9.640;2024-01-06T04:22:04;0.20;75.40
71668;DHT22;59504;54.806;9.640;2024-01-06T04:24:23;0.20;74.60
71668;DHT22;59504;54.806;9.640;2024-01-06T04:26:42;0.10;74.40
71668;DHT22;59504;54.806;9.640;2024-01-06T04:29:03;0.20;74.10
71668;DHT22;59504;54.806;9.640;2024-01-06T04:31:23;0.10;73.90
71668;DHT22;59504;54.806;9.640;2024-01-06T04:33:42;0.30;74.00
71668;DHT22;59504;54.806;9.640;2024-01-06T04:36:01;0.20;73.90
71668;DHT22;59504;54.806;9.640;2024-01-06T04:38:21;0.20;75.30
71668;DHT22;59504;54.806;9.640;2024-01-06T04:40:41;0.20;75.80
71668;DHT22;59504;54.806;9.640;2024-01-06T04:43:00;0.30;75.70
71668;DHT22;59504;54.806;9.640;2024-01-06T04:45:19;0.30;75.70
71668;DHT22;59504;54.806;9.640;2024-01-06T04:47:52;0.30;76.50
71668;DHT22;59504;54.806;9.640;2024-01-06T04:50:12;0.20;77.40
71668;DHT22;59504;54.806;9.640;2024-01-06T04:52:31;0.10;78.00
71668;DHT22;59504;54.806;9.640;2024-01-06T04:54:50;0.10;78.50
71668;DHT22;59504;54.806;9.640;2024-01-06T04:57:09;0.00;78.80
71668;DHT22;59504;54.806;9.640;2024-01-06T04:59:29;-0.20;79.50
71668;DHT22;59504;54.806;9.640;2024-01-06T05:01:48;-0.20;79.70
71668;DHT22;59504;54.806;9.640;2024-01-06T05:04:07;-0.30;80.50
71668;DHT22;59504;54.806;9.640;2024-01-06T05:06:27;-0.30;80.90
71668;DHT22;59504;54.806;9.640;2024-01-06T05:08:46;-0.20;81.00
71668;DHT22;59504;54.806;9.640;2024-01-06T05:11:05;-0.40;81.50
71668;DHT22;59504;54.806;9.640;2024-01-06T05:13:25;-0.40;82.70
71668;DHT22;59504;54.806;9.640;2024-01-06T05:15:44;-0.40;82.80
71668;DHT22;59504;54.806;9.640;2024-01-06T05:18:03;-0.50;82.10
71668;DHT22;59504;54.806;9.640;2024-01-06T05:20:22;-0.50;82.30
71668;DHT22;59504;54.806;9.640;2024-01-06T05:22:41;-0.50;82.80
71668;DHT22;59504;54.806;9.640;2024-01-06T05:25:01;-0.60;82.70
71668;DHT22;59504;54.806;9.640;2024-01-06T05:27:20;-0.50;82.70
71668;DHT22;59504;54.806;9.640;2024-01-06T05:29:39;-0.60;83.20
71668;DHT22;59504;54.806;9.640;2024-01-06T05:31:59;-0.60;83.30
71668;DHT22;59504;54.806;9.640;2024-01-06T05:34:18;-0.70;83.60
71668;DHT22;59504;54.806;9.640;2024-01-06T05:36:37;-0.70;84.90
71668;DHT22;59504;54.806;9.640;2024-01-06T05:38:56;-0.80;84.00
71668;DHT22;59504;54.806;9.640;2024-01-06T05:41:15;-0.80;85.00
71668;DHT22;59504;54.806;9.640;2024-01-06T05:43:35;-0.80;84.90
71668;DHT22;59504;54.806;9.640;2024-01-06T05:45:56;-0.60;85.20
71668;DHT22;59504;54.806;9.640;2024-01-06T05:48:15;-0.80;85.30
71668;DHT22;59504;54.806;9.640;2024-01-06T05:50:34;-0.70;85.40
71668;DHT22;59504;54.806;9.640;2024-01-06T05:52:54;-0.70;85.30
71668;DHT22;59504;54.806;9.640;2024-01-06T05:55:13;-0.60;85.20
71668;DHT22;59504;54.806;9.640;2024-01-06T05:57:32;-0.60;85.40
71668;DHT22;59504;54.806;9.640;2024-01-06T05:59:51;-0.50;86.10
71668;DHT22;59504;54.806;9.640;2024-01-06T06:02:11;-0.60;85.50
71668;DHT22;59504;54.806;9.640;2024-01-06T06:04:30;-0.50;85.80
71668;DHT22;59504;54.806;9.640;2024-01-06T06:06:49;-0.60;85.70
71668;DHT22;59504;54.806;9.640;2024-01-06T06:09:08;-0.50;85.60
71668;DHT22;59504;54.806;9.640;2024-01-06T06:11:29;-0.60;86.40
71668;DHT22;59504;54.806;9.640;2024-01-06T06:13:48;-0.60;85.60
71668;DHT22;59504;54.806;9.640;2024-01-06T06:16:10;-0.50;85.60
71668;DHT22;59504;54.806;9.640;2024-01-06T06:18:35;-0.50;85.60
71668;DHT22;59504;54.806;9.640;2024-01-06T06:20:55;-0.50;85.50
71668;DHT22;59504;54.806;9.640;2024-01-06T06:23:14;-0.40;85.60
71668;DHT22;59504;54.806;9.640;2024-01-06T06:25:33;-0.60;85.90
71668;DHT22;59504;54.806;9.640;2024-01-06T06:27:52;-0.60;86.60
71668;DHT22;59504;54.806;9.640;2024-01-06T06:30:12;-0.70;85.70
71668;DHT22;59504;54.806;9.640;2024-01-06T06:32:31;-0.70;86.00
71668;DHT22;59504;54.806;9.640;2024-01-06T06:34:50;-0.70;85.80
71668;DHT22;59504;54.806;9.640;2024-01-06T06:37:13;-0.70;86.10
71668;DHT22;59504;54.806;9.640;2024-01-06T06:39:33;-0.60;86.10
71668;DHT22;59504;54.806;9.640;2024-01-06T06:41:53;-0.60;85.90
71668;DHT22;59504;54.806;9.640;2024-01-06T06:44:12;-0.70;87.10
71668;DHT22;59504;54.806;9.640;2024-01-06T06:46:31;-0.70;86.20
71668;DHT22;59504;54.806;9.640;2024-01-06T06:48:51;-0.70;87.20
71668;DHT22;59504;54.806;9.640;2024-01-06T06:51:10;-0.50;86.60
71668;DHT22;59504;54.806;9.640;2024-01-06T06:53:29;-0.60;86.40
71668;DHT22;59504;54.806;9.640;2024-01-06T06:55:48;-0.60;86.30
71668;DHT22;59504;54.806;9.640;2024-01-06T06:58:08;-0.60;86.60
71668;DHT22;59504;54.806;9.640;2024-01-06T07:00:27;-0.80;87.20
71668;DHT22;59504;54.806;9.640;2024-01-06T07:02:46;-0.70;86.60
71668;DHT22;59504;54.806;9.640;2024-01-06T07:05:05;-0.70;86.50
71668;DHT22;59504;54.806;9.640;2024-01-06T07:07:28;-0.70;86.80
71668;DHT22;59504;54.806;9.640;2024-01-06T07:09:47;-0.60;87.60
71668;DHT22;59504;54.806;9.640;2024-01-06T07:12:06;-0.70;86.80
71668;DHT22;59504;54.806;9.640;2024-01-06T07:14:25;-0.70;87.00
71668;DHT22;59504;54.806;9.640;2024-01-06T07:16:44;-0.50;86.90
71668;DHT22;59504;54.806;9.640;2024-01-06T07:21:13;-0.80;86.90
71668;DHT22;59504;54.806;9.640;2024-01-06T07:23:32;-0.80;87.00
71668;DHT22;59504;54.806;9.640;2024-01-06T07:25:51;-0.80;86.80
71668;DHT22;59504;54.806;9.640;2024-01-06T07:28:11;-0.80;87.70
71668;DHT22;59504;54.806;9.640;2024-01-06T07:30:27;-0.90;87.00
71668;DHT22;59504;54.806;9.640;2024-01-06T07:32:46;-0.80;87.10
71668;DHT22;59504;54.806;9.640;2024-01-06T07:35:06;-0.80;87.30
71668;DHT22;59504;54.806;9.640;2024-01-06T07:37:25;-0.80;88.40
71668;DHT22;59504;54.806;9.640;2024-01-06T07:39:44;-0.80;88.60
71668;DHT22;59504;54.806;9.640;2024-01-06T07:42:04;-0.80;88.50
71668;DHT22;59504;54.806;9.640;2024-01-06T07:44:23;-0.80;88.20
71668;DHT22;59504;54.806;9.640;2024-01-06T07:46:43;-0.80;87.80
71668;DHT22;59504;54.806;9.640;2024-01-06T07:49:02;-0.80;88.00
71668;DHT22;59504;54.806;9.640;2024-01-06T07:51:22;-0.70;88.00
71668;DHT22;59504;54.806;9.640;2024-01-06T07:53:41;-0.70;87.70
71668;DHT22;59504;54.806;9.640;2024-01-06T07:56:01;-0.70;88.00
71668;DHT22;59504;54.806;9.640;2024-01-06T07:58:20;-0.80;87.70
71668;DHT22;59504;54.806;9.640;2024-01-06T08:00:40;-0.70;88.10
71668;DHT22;59504;54.806;9.640;2024-01-06T08:02:59;-0.70;87.90
71668;DHT22;59504;54.806;9.640;2024-01-06T08:05:19;-0.70;87.80
71668;DHT22;59504;54.806;9.640;2024-01-06T08:07:38;-0.70;88.10
71668;DHT22;59504;54.806;9.640;2024-01-06T08:09:57;-0.70;87.50
71668;DHT22;59504;54.806;9.640;2024-01-06T08:12:17;-0.60;87.70
71668;DHT22;59504;54.806;9.640;2024-01-06T08:14:36;-0.60;87.40
71668;DHT22;59504;54.806;9.640;2024-01-06T08:16:56;-0.60;87.80
71668;DHT22;59504;54.806;9.640;2024-01-06T08:19:15;-0.60;88.10
71668;DHT22;59504;54.806;9.640;2024-01-06T08:21:35;-0.70;88.10
71668;DHT22;59504;54.806;9.640;2024-01-06T08:23:54;-0.70;88.10
71668;DHT22;59504;54.806;9.640;2024-01-06T08:26:13;-0.60;88.00
71668;DHT22;59504;54.806;9.640;2024-01-06T08:28:33;-0.50;87.90
71668;DHT22;59504;54.806;9.640;2024-01-06T08:30:52;-0.60;88.00
71668;DHT22;59504;54.806;9.640;2024-01-06T08:33:12;-0.60;87.80
71668;DHT22;59504;54.806;9.640;2024-01-06T08:35:31;-0.60;87.90
71668;DHT22;59504;54.806;9.640;2024-01-06T08:37:50;-0.60;87.80
71668;DHT22;59504;54.806;9.640;2024-01-06T08:40:09;-0.70;88.60
71668;DHT22;59504;54.806;9.640;2024-01-06T08:42:29;-0.60;87.90
71668;DHT22;59504;54.806;9.640;2024-01-06T08:44:48;-0.60;87.90
71668;DHT22;59504;54.806;9.640;2024-01-06T08:47:07;-0.50;87.80
71668;DHT22;59504;54.806;9.640;2024-01-06T08:49:26;-0.50;87.70
71668;DHT22;59504;54.806;9.640;2024-01-06T08:51:46;-0.50;87.90
71668;DHT22;59504;54.806;9.640;2024-01-06T08:54:06;-0.50;87.80
71668;DHT22;59504;54.806;9.640;2024-01-06T08:56:25;-0.50;87.90
71668;DHT22;59504;54.806;9.640;2024-01-06T08:58:45;-0.50;87.60
71668;DHT22;59504;54.806;9.640;2024-01-06T09:01:04;-0.40;87.60
71668;DHT22;59504;54.806;9.640;2024-01-06T09:03:24;-0.50;87.70
71668;DHT22;59504;54.806;9.640;2024-01-06T09:05:45;-0.50;87.90
71668;DHT22;59504;54.806;9.640;2024-01-06T09:08:04;-0.40;88.20
71668;DHT22;59504;54.806;9.640;2024-01-06T09:10:23;-0.40;88.90
71668;DHT22;59504;54.806;9.640;2024-01-06T09:12:42;-0.40;88.00
71668;DHT22;59504;54.806;9.640;2024-01-06T09:15:02;-0.50;88.30
71668;DHT22;59504;54.806;9.640;2024-01-06T09:17:21;-0.40;88.40
71668;DHT22;59504;54.806;9.640;2024-01-06T09:19:41;-0.50;88.30
71668;DHT22;59504;54.806;9.640;2024-01-06T09:22:00;-0.40;88.20
71668;DHT22;59504;54.806;9.640;2024-01-06T09:24:20;-0.40;88.50
71668;DHT22;59504;54.806;9.640;2024-01-06T09:26:39;-0.40;88.20
71668;DHT22;59504;54.806;9.640;2024-01-06T09:28:59;-0.40;88.10
71668;DHT22;59504;54.806;9.640;2024-01-06T09:31:18;-0.40;88.60
71668;DHT22;59504;54.806;9.640;2024-01-06T09:33:38;-0.40;88.10
71668;DHT22;59504;54.806;9.640;2024-01-06T09:35:57;-0.30;88.20
71668;DHT22;59504;54.806;9.640;2024-01-06T09:38:16;-0.40;87.90
71668;DHT22;59504;54.806;9.640;2024-01-06T09:40:38;-0.30;87.70
71668;DHT22;59504;54.806;9.640;2024-01-06T09:43:00;-0.30;87.80
71668;DHT22;59504;54.806;9.640;2024-01-06T09:45:19;-0.30;87.70
71668;DHT22;59504;54.806;9.640;2024-01-06T09:47:40;-0.30;87.80
71668;DHT22;59504;54.806;9.640;2024-01-06T09:49:59;-0.30;87.70
71668;DHT22;59504;54.806;9.640;2024-01-06T09:52:21;-0.30;88.70
71668;DHT22;59504;54.806;9.640;2024-01-06T09:54:41;-0.30;87.70
71668;DHT22;59504;54.806;9.640;2024-01-06T09:57:03;-0.20;88.50
71668;DHT22;59504;54.806;9.640;2024-01-06T09:59:25;-0.20;87.50
71668;DHT22;59504;54.806;9.640;2024-01-06T10:01:44;-0.30;87.30
71668;DHT22;59504;54.806;9.640;2024-01-06T10:04:04;-0.30;88.30
71668;DHT22;59504;54.806;9.640;2024-01-06T10:06:23;-0.30;87.40
71668;DHT22;59504;54.806;9.640;2024-01-06T10:08:43;-0.30;88.20
71668;DHT22;59504;54.806;9.640;2024-01-06T10:11:02;-0.30;87.70
71668;DHT22;59504;54.806;9.640;2024-01-06T10:13:21;-0.30;87.60
71668;DHT22;59504;54.806;9.640;2024-01-06T10:15:43;-0.30;88.30
71668;DHT22;59504;54.806;9.640;2024-01-06T10:18:02;-0.40;88.10
71668;DHT22;59504;54.806;9.640;2024-01-06T10:20:22;-0.50;87.50
71668;DHT22;59504;54.806;9.640;2024-01-06T10:22:41;-0.40;87.60
71668;DHT22;59504;54.806;9.640;2024-01-06T10:25:01;-0.40;87.60
71668;DHT22;59504;54.806;9.640;2024-01-06T10:27:21;-0.40;88.50
71668;DHT22;59504;54.806;9.640;2024-01-06T10:29:40;-0.40;87.50
71668;DHT22;59504;54.806;9.640;2024-01-06T10:31:59;-0.50;87.40
71668;DHT22;59504;54.806;9.640;2024-01-06T10:34:19;-0.50;87.80
71668;DHT22;59504;54.806;9.640;2024-01-06T10:36:38;-0.60;87.70
71668;DHT22;59504;54.806;9.640;2024-01-06T10:38:58;-0.50;87.90
71668;DHT22;59504;54.806;9.640;2024-01-06T10:41:17;-0.50;87.80
71668;DHT22;59504;54.806;9.640;2024-01-06T10:43:36;-0.50;88.20
71668;DHT22;59504;54.806;9.640;2024-01-06T10:46:02;-0.60;88.00
71668;DHT22;59504;54.806;9.640;2024-01-06T10:48:26;-0.60;88.00
71668;DHT22;59504;54.806;9.640;2024-01-06T10:50:49;-0.50;88.40
71668;DHT22;59504;54.806;9.640;2024-01-06T10:53:11;-0.50;88.20
71668;DHT22;59504;54.806;9.640;2024-01-06T10:55:38;-0.50;88.10
71668;DHT22;59504;54.806;9.640;2024-01-06T10:57:58;-0.40;88.20
71668;DHT22;59504;54.806;9.640;2024-01-06T11:00:17;-0.40;88.00
71668;DHT22;59504;54.806;9.640;2024-01-06T11:02:36;-0.50;88.20
71668;DHT22;59504;54.806;9.640;2024-01-06T11:04:56;-0.40;88.30
71668;DHT22;59504;54.806;9.640;2024-01-06T11:07:15;-0.40;87.20
71668;DHT22;59504;54.806;9.640;2024-01-06T11:09:35;-0.40;87.30
71668;DHT22;59504;54.806;9.640;2024-01-06T11:11:56;-0.50;86.70
71668;DHT22;59504;54.806;9.640;2024-01-06T11:14:23;-0.50;86.50
71668;DHT22;59504;54.806;9.640;2024-01-06T11:16:43;-0.40;86.70
71668;DHT22;59504;54.806;9.640;2024-01-06T11:19:03;-0.50;86.50
71668;DHT22;59504;54.806;9.640;2024-01-06T11:21:22;-0.50;86.20
71668;DHT22;59504;54.806;9.640;2024-01-06T11:23:44;-0.50;86.10
71668;DHT22;59504;54.806;9.640;2024-01-06T11:26:03;-0.40;86.70
71668;DHT22;59504;54.806;9.640;2024-01-06T11:28:22;-0.50;85.80
71668;DHT22;59504;54.806;9.640;2024-01-06T11:30:42;-0.60;85.70
71668;DHT22;59504;54.806;9.640;2024-01-06T11:33:02;-0.50;85.70
71668;DHT22;59504;54.806;9.640;2024-01-06T11:35:23;-0.60;85.20
71668;DHT22;59504;54.806;9.640;2024-01-06T11:40:02;-0.60;85.20
71668;DHT22;59504;54.806;9.640;2024-01-06T11:42:21;-0.50;85.30
71668;DHT22;59504;54.806;9.640;2024-01-06T11:44:45;-0.60;84.80
71668;DHT22;59504;54.806;9.640;2024-01-06T11:47:08;-0.60;84.80
71668;DHT22;59504;54.806;9.640;2024-01-06T11:49:30;-0.60;84.60
71668;DHT22;59504;54.806;9.640;2024-01-06T11:51:50;-0.60;85.40
71668;DHT22;59504;54.806;9.640;2024-01-06T11:54:09;-0.50;84.70
71668;DHT22;59504;54.806;9.640;2024-01-06T11:56:28;-0.50;84.60
71668;DHT22;59504;54.806;9.640;2024-01-06T11:58:48;-0.50;84.50
71668;DHT22;59504;54.806;9.640;2024-01-06T12:01:06;-0.50;84.60
71668;DHT22;59504;54.806;9.640;2024-01-06T12:03:26;-0.50;84.30
71668;DHT22;59504;54.806;9.640;2024-01-06T12:05:46;-0.50;84.50
71668;DHT22;59504;54.806;9.640;2024-01-06T12:08:18;-0.50;85.20
71668;DHT22;59504;54.806;9.640;2024-01-06T12:10:37;-0.60;84.30
71668;DHT22;59504;54.806;9.640;2024-01-06T12:15:17;-0.50;83.90
71668;DHT22;59504;54.806;9.640;2024-01-06T12:17:38;-0.50;84.00
71668;DHT22;59504;54.806;9.640;2024-01-06T12:19:58;-0.50;84.40
71668;DHT22;59504;54.806;9.640;2024-01-06T12:22:18;-0.60;83.40
71668;DHT22;59504;54.806;9.640;2024-01-06T12:24:37;-0.60;83.40
71668;DHT22;59504;54.806;9.640;2024-01-06T12:26:56;-0.60;83.40
71668;DHT22;59504;54.806;9.640;2024-01-06T12:29:18;-0.50;83.40
71668;DHT22;59504;54.806;9.640;2024-01-06T12:31:41;-0.60;84.20
71668;DHT22;59504;54.806;9.640;2024-01-06T12:34:00;-0.50;83.50
71668;DHT22;59504;54.806;9.640;2024-01-06T12:36:19;-0.60;83.50
71668;DHT22;59504;54.806;9.640;2024-01-06T12:38:41;-0.50;83.30
71668;DHT22;59504;54.806;9.640;2024-01-06T12:41:00;-0.50;83.20
71668;DHT22;59504;54.806;9.640;2024-01-06T12:43:20;-0.50;83.90
71668;DHT22;59504;54.806;9.640;2024-01-06T12:45:39;-0.50;83.00
71668;DHT22;59504;54.806;9.640;2024-01-06T12:47:58;-0.50;83.10
71668;DHT22;59504;54.806;9.640;2024-01-06T12:50:17;-0.50;82.90
71668;DHT22;59504;54.806;9.640;2024-01-06T12:52:36;-0.50;82.90
71668;DHT22;59504;54.806;9.640;2024-01-06T12:54:57;-0.50;82.90
71668;DHT22;59504;54.806;9.640;2024-01-06T12:57:16;-0.50;83.10
71668;DHT22;59504;54.806;9.640;2024-01-06T12:59:36;-0.50;83.10
71668;DHT22;59504;54.806;9.640;2024-01-06T13:01:55;-0.50;82.80
71668;DHT22;59504;54.806;9.640;2024-01-06T13:04:14;-0.40;83.70
71668;DHT22;59504;54.806;9.640;2024-01-06T13:06:33;-0.50;83.70
71668;DHT22;59504;54.806;9.640;2024-01-06T13:08:53;-0.50;83.10
71668;DHT22;59504;54.806;9.640;2024-01-06T13:11:12;-0.40;82.80
71668;DHT22;59504;54.806;9.640;2024-01-06T13:13:32;-0.60;82.70
71668;DHT22;59504;54.806;9.640;2024-01-06T13:15:51;-0.50;83.70
71668;DHT22;59504;54.806;9.640;2024-01-06T13:18:10;-0.40;83.00
71668;DHT22;59504;54.806;9.640;2024-01-06T13:20:31;-0.60;82.70
71668;DHT22;59504;54.806;9.640;2024-01-06T13:22:51;-0.40;82.80
71668;DHT22;59504;54.806;9.640;2024-01-06T13:25:10;-0.50;82.50
71668;DHT22;59504;54.806;9.640;2024-01-06T13:27:30;-0.50;82.40
71668;DHT22;59504;54.806;9.640;2024-01-06T13:29:50;-0.50;82.50
71668;DHT22;59504;54.806;9.640;2024-01-06T13:32:10;-0.50;82.60
71668;DHT22;59504;54.806;9.640;2024-01-06T13:34:30;-0.50;82.80
71668;DHT22;59504;54.806;9.640;2024-01-06T13:36:49;-0.50;82.80
71668;DHT22;59504;54.806;9.640;2024-01-06T13:39:09;-0.60;82.70
71668;DHT22;59504;54.806;9.640;2024-01-06T13:41:35;-0.50;83.20
71668;DHT22;59504;54.806;9.640;2024-01-06T13:43:55;-0.50;82.40
71668;DHT22;59504;54.806;9.640;2024-01-06T13:46:14;-0.50;82.60
71668;DHT22;59504;54.806;9.640;2024-01-06T13:48:33;-0.50;82.60
71668;DHT22;59504;54.806;9.640;2024-01-06T13:50:53;-0.60;82.20
71668;DHT22;59504;54.806;9.640;2024-01-06T13:53:13;-0.60;82.40
71668;DHT22;59504;54.806;9.640;2024-01-06T13:55:32;-0.50;82.70
71668;DHT22;59504;54.806;9.640;2024-01-06T13:57:52;-0.60;82.50
71668;DHT22;59504;54.806;9.640;2024-01-06T14:00:11;-0.60;83.30
71668;DHT22;59504;54.806;9.640;2024-01-06T14:02:33;-0.70;83.50
71668;DHT22;59504;54.806;9.640;2024-01-06T14:04:54;-0.70;82.70
71668;DHT22;59504;54.806;9.640;2024-01-06T14:07:13;-0.70;82.80
71668;DHT22;59504;54.806;9.640;2024-01-06T14:09:32;-0.50;82.80
71668;DHT22;59504;54.806;9.640;2024-01-06T14:11:51;-0.70;82.50
71668;DHT22;59504;54.806;9.640;2024-01-06T14:14:11;-0.60;82.60
71668;DHT22;59504;54.806;9.640;2024-01-06T14:16:31;-0.60;82.20
71668;DHT22;59504;54.806;9.640;2024-01-06T14:18:51;-0.60;82.30
71668;DHT22;59504;54.806;9.640;2024-01-06T14:21:10;-0.60;82.60
71668;DHT22;59504;54.806;9.640;2024-01-06T14:23:30;-0.70;81.80
71668;DHT22;59504;54.806;9.640;2024-01-06T14:25:51;-0.70;81.80
71668;DHT22;59504;54.806;9.640;2024-01-06T14:28:11;-0.70;81.60
71668;DHT22;59504;54.806;9.640;2024-01-06T14:30:30;-0.70;81.40
71668;DHT22;59504;54.806;9.640;2024-01-06T14:32:50;-0.70;81.40
71668;DHT22;59504;54.806;9.640;2024-01-06T14:35:10;-0.70;81.30
71668;DHT22;59504;54.806;9.640;2024-01-06T14:37:32;-0.80;81.30
71668;DHT22;59504;54.806;9.640;2024-01-06T14:42:01;-0.80;81.60
71668;DHT22;59504;54.806;9.640;2024-01-06T14:44:20;-0.90;81.30
71668;DHT22;59504;54.806;9.640;2024-01-06T14:46:39;-0.80;81.60
71668;DHT22;59504;54.806;9.640;2024-01-06T14:49:01;-0.90;81.20
71668;DHT22;59504;54.806;9.640;2024-01-06T14:51:20;-0.80;81.20
71668;DHT22;59504;54.806;9.640;2024-01-06T14:53:39;-0.80;81.10
71668;DHT22;59504;54.806;9.640;2024-01-06T14:56:00;-0.80;80.90